createdAt,value
2023-01-12T00:01:17.414Z,100450.28
2023-01-12T00:03:47.271Z,100449.03
2023-01-12T00:06:17.201Z,100449.78
2023-01-12T00:08:46.990Z,100438.25
2023-01-12T00:11:17.120Z,100431.19
2023-01-12T00:13:47.084Z,100418.84
2023-01-12T00:16:34.640Z,100418.72
2023-01-12T00:19:05.352Z,100419.56
2023-01-12T00:21:50.222Z,100413.56
2023-01-12T00:24:20.286Z,100402.19
2023-01-12T00:26:51.426Z,100416.09
2023-01-12T00:29:21.531Z,100413.56
2023-01-12T00:31:54.256Z,100413.63
2023-01-12T00:34:24.258Z,100412.78
2023-01-12T00:36:54.563Z,100412.00
2023-01-12T00:39:25.162Z,100402.41
2023-01-12T00:42:18.955Z,100383.25
2023-01-12T00:45:01.141Z,100393.75
2023-01-12T00:47:33.635Z,100392.88
2023-01-12T00:50:03.575Z,100398.06
2023-01-12T00:52:33.425Z,100391.91
2023-01-12T00:55:03.223Z,100400.69
2023-01-12T00:57:33.127Z,100396.34
2023-01-12T01:00:02.985Z,100406.03
2023-01-12T01:02:36.276Z,100401.78
2023-01-12T01:05:06.165Z,100402.81
2023-01-12T01:07:36.172Z,100391.69
2023-01-12T01:10:05.982Z,100398.75
2023-01-12T01:12:36.170Z,100401.41
2023-01-12T01:15:06.415Z,100389.25
2023-01-12T01:17:38.835Z,100384.13
2023-01-12T01:20:09.496Z,100378.88
2023-01-12T01:22:39.497Z,100380.69
2023-01-12T01:25:10.308Z,100376.31
2023-01-12T01:27:40.316Z,100377.19
2023-01-12T01:30:11.694Z,100382.44
2023-01-12T01:32:44.204Z,100377.34
2023-01-12T01:35:13.973Z,100373.88
2023-01-12T01:37:43.686Z,100367.78
2023-01-12T01:40:15.009Z,100355.63
2023-01-12T01:42:44.736Z,100360.03
2023-01-12T01:45:16.992Z,100349.56
2023-01-12T01:47:52.206Z,100351.31
2023-01-12T01:50:26.734Z,100351.31
2023-01-12T01:53:01.061Z,100360.13
2023-01-12T01:55:36.602Z,100347.91
2023-01-12T01:58:10.792Z,100347.97
2023-01-12T02:00:42.277Z,100346.28
2023-01-12T02:03:16.139Z,100340.22
2023-01-12T02:05:48.617Z,100330.66
2023-01-12T02:08:29.193Z,100328.06
2023-01-12T02:11:01.655Z,100326.41
2023-01-12T02:13:45.586Z,100326.41
2023-01-12T02:16:24.354Z,100305.44
2023-01-12T02:19:24.626Z,100320.31
2023-01-12T02:22:21.218Z,100313.34
2023-01-12T02:25:15.451Z,100304.72
2023-01-12T02:28:03.731Z,100288.19
2023-01-12T02:31:07.481Z,100279.53
2023-01-12T02:33:51.511Z,100270.00
2023-01-12T02:36:31.752Z,100262.19
2023-01-12T02:39:08.551Z,100262.22
2023-01-12T02:41:56.567Z,100260.41
2023-01-12T02:44:36.006Z,100263.97
2023-01-12T02:47:10.044Z,100253.47
2023-01-12T02:49:47.684Z,100236.00
2023-01-12T02:52:20.264Z,100227.31
2023-01-12T02:54:52.215Z,100230.81
2023-01-12T02:57:25.061Z,100227.34
2023-01-12T02:59:57.249Z,100219.53
2023-01-12T03:02:29.223Z,100209.03
2023-01-12T03:05:01.662Z,100211.66
2023-01-12T03:07:48.601Z,100199.44
2023-01-12T03:10:45.487Z,100197.69
2023-01-12T03:13:19.038Z,100194.25
2023-01-12T03:15:53.117Z,100182.09
2023-01-12T03:18:30.361Z,100183.84
2023-01-12T03:21:08.246Z,100171.66
2023-01-12T03:23:43.357Z,100169.13
2023-01-12T03:26:14.601Z,100162.19
2023-01-12T03:28:49.430Z,100152.72
2023-01-12T03:31:19.338Z,100144.06
2023-01-12T03:33:49.409Z,100147.66
2023-01-12T03:36:28.870Z,100144.19
2023-01-12T03:39:09.087Z,100141.59
2023-01-12T03:41:49.545Z,100133.84
2023-01-12T03:44:23.837Z,100123.34
2023-01-12T03:46:58.926Z,100122.47
2023-01-12T03:49:36.054Z,100116.38
2023-01-12T03:52:12.914Z,100119.94
2023-01-12T03:54:46.732Z,100106.78
2023-01-12T03:57:17.162Z,100108.63
2023-01-12T03:59:47.032Z,100113.81
2023-01-12T04:02:16.975Z,100103.31
2023-01-12T04:04:46.711Z,100096.38
2023-01-12T04:07:19.147Z,100092.00
2023-01-12T04:09:48.949Z,100087.66
2023-01-12T04:12:18.730Z,100078.94
2023-01-12T04:14:49.966Z,100069.34
2023-01-12T04:17:24.300Z,100049.16
2023-01-12T04:19:54.598Z,100049.16
2023-01-12T04:22:42.213Z,100041.28
2023-01-12T04:25:12.915Z,100024.66
2023-01-12T04:27:49.423Z,100008.09
2023-01-12T04:30:23.614Z,100004.56
2023-01-12T04:32:53.938Z,99988.81
2023-01-12T04:35:24.333Z,99981.00
2023-01-12T04:37:57.339Z,99987.91
2023-01-12T04:40:27.275Z,99977.38
2023-01-12T04:43:07.900Z,99956.34
2023-01-12T04:45:41.707Z,99952.81
2023-01-12T04:48:13.916Z,99932.66
2023-01-12T04:50:45.185Z,99917.81
2023-01-12T04:53:17.616Z,99906.50
2023-01-12T04:55:47.510Z,99882.06
2023-01-12T04:58:17.278Z,99865.44
2023-01-12T05:00:47.454Z,99861.06
2023-01-12T05:03:18.259Z,99862.00
2023-01-12T05:05:48.146Z,99843.63
2023-01-12T05:08:32.991Z,99813.03
2023-01-12T05:11:04.105Z,99800.75
2023-01-12T05:13:35.198Z,99785.00
2023-01-12T05:16:13.096Z,99779.75
2023-01-12T05:18:42.910Z,99776.22
2023-01-12T05:21:12.643Z,99762.25
2023-01-12T05:23:45.058Z,99754.34
2023-01-12T05:26:16.039Z,99751.69
2023-01-12T05:28:46.106Z,99744.75
2023-01-12T05:31:16.914Z,99743.81
2023-01-12T05:33:46.920Z,99735.97
2023-01-12T05:36:18.868Z,99732.47
2023-01-12T05:38:51.344Z,99721.06
2023-01-12T05:41:23.114Z,99721.91
2023-01-12T05:43:55.049Z,99723.63
2023-01-12T05:46:27.066Z,99715.75
2023-01-12T05:48:59.236Z,99720.06
2023-01-12T05:51:31.078Z,99714.00
2023-01-12T05:54:03.707Z,99713.09
2023-01-12T05:56:34.296Z,99708.75
2023-01-12T05:59:05.782Z,99696.50
2023-01-12T06:01:36.408Z,99701.75
2023-01-12T06:04:06.373Z,99718.38
2023-01-12T06:06:36.146Z,99699.19
2023-01-12T06:09:08.912Z,99707.94
2023-01-12T06:11:51.066Z,99691.31
2023-01-12T06:14:20.790Z,99698.31
2023-01-12T06:16:50.523Z,99694.81
2023-01-12T06:19:20.275Z,99676.44
2023-01-12T06:21:50.083Z,99678.19
2023-01-12T06:24:22.442Z,99679.06
2023-01-12T06:26:52.218Z,99685.19
2023-01-12T06:29:21.963Z,99693.97
2023-01-12T06:31:51.726Z,99672.13
2023-01-12T06:34:21.791Z,99671.31
2023-01-12T06:36:52.319Z,99676.56
2023-01-12T06:39:24.704Z,99671.34
2023-01-12T06:42:07.127Z,99672.22
2023-01-12T06:44:36.948Z,99664.47
2023-01-12T06:47:06.988Z,99657.53
2023-01-12T06:49:36.865Z,99667.19
2023-01-12T06:52:06.897Z,99681.28
2023-01-12T06:54:39.462Z,99672.63
2023-01-12T06:57:09.232Z,99677.94
2023-01-12T06:59:39.138Z,99682.41
2023-01-12T07:02:09.128Z,99684.22
2023-01-12T07:04:39.041Z,99676.41
2023-01-12T07:07:09.073Z,99680.00
2023-01-12T07:09:41.567Z,99686.22
2023-01-12T07:12:11.432Z,99667.03
2023-01-12T07:14:41.214Z,99675.91
2023-01-12T07:17:12.746Z,99667.25
2023-01-12T07:19:43.508Z,99679.59
2023-01-12T07:22:13.410Z,99677.94
2023-01-12T07:24:45.832Z,99685.06
2023-01-12T07:27:15.657Z,99682.56
2023-01-12T07:29:46.759Z,99677.44
2023-01-12T07:32:16.540Z,99681.97
2023-01-12T07:34:46.735Z,99664.50
2023-01-12T07:37:16.538Z,99696.13
2023-01-12T07:39:48.911Z,99691.81
2023-01-12T07:42:27.810Z,99689.22
2023-01-12T07:44:57.971Z,99691.94
2023-01-12T07:47:28.199Z,99688.47
2023-01-12T07:49:57.951Z,99697.28
2023-01-12T07:52:27.738Z,99704.31
2023-01-12T07:55:00.117Z,99705.25
2023-01-12T07:57:29.886Z,99715.75
2023-01-12T07:59:59.595Z,99710.53
2023-01-12T08:02:29.346Z,99684.25
2023-01-12T08:04:59.086Z,99725.47
2023-01-12T08:07:29.100Z,99714.09
2023-01-12T08:10:01.689Z,99715.03
2023-01-12T08:12:33.062Z,99722.91
2023-01-12T08:15:04.540Z,99726.47
2023-01-12T08:17:39.082Z,99742.28
2023-01-12T08:20:14.969Z,99728.28
2023-01-12T08:22:49.145Z,99728.34
2023-01-12T08:25:26.873Z,99734.50
2023-01-12T08:28:02.053Z,99745.94
2023-01-12T08:30:32.683Z,99740.72
2023-01-12T08:33:04.427Z,99741.63
2023-01-12T08:35:37.368Z,99730.28
2023-01-12T08:38:07.131Z,99767.09
2023-01-12T08:40:51.884Z,99766.25
2023-01-12T08:43:41.605Z,99759.25
2023-01-12T08:46:11.481Z,99739.97
2023-01-12T08:48:41.802Z,99764.53
2023-01-12T08:51:11.895Z,99770.69
2023-01-12T08:53:41.636Z,99778.63
2023-01-12T08:56:14.136Z,99769.88
2023-01-12T08:58:44.090Z,99781.31
2023-01-12T09:01:16.837Z,99760.31
2023-01-12T09:03:47.391Z,99777.00
2023-01-12T09:06:19.723Z,99797.16
2023-01-12T09:08:49.941Z,99809.47
2023-01-12T09:11:22.443Z,99807.75
2023-01-12T09:13:52.592Z,99793.75
2023-01-12T09:16:23.120Z,99815.66
2023-01-12T09:18:53.215Z,99823.59
2023-01-12T09:21:25.657Z,99814.84
2023-01-12T09:23:55.747Z,99831.53
2023-01-12T09:26:32.193Z,99842.06
2023-01-12T09:29:02.837Z,99843.81
2023-01-12T09:31:35.183Z,99854.34
2023-01-12T09:34:07.924Z,99856.97
2023-01-12T09:36:39.805Z,99857.91
2023-01-12T09:39:18.680Z,99872.84
2023-01-12T09:42:14.002Z,99863.22
2023-01-12T09:44:58.000Z,99886.97
2023-01-12T09:47:33.615Z,99892.25
2023-01-12T09:50:09.722Z,99891.34
2023-01-12T09:52:43.766Z,99895.72
2023-01-12T09:55:18.302Z,99900.97
2023-01-12T09:58:18.440Z,99913.25
2023-01-12T10:00:53.372Z,99900.09
2023-01-12T10:03:31.133Z,99887.84
2023-01-12T10:06:03.085Z,99911.53
2023-01-12T10:08:37.639Z,99912.47
2023-01-12T10:11:13.890Z,99930.91
2023-01-12T10:14:16.519Z,99923.94
2023-01-12T10:17:01.690Z,99933.56
2023-01-12T10:19:37.759Z,99933.56
2023-01-12T10:22:37.084Z,99931.88
2023-01-12T10:25:28.092Z,99941.50
2023-01-12T10:27:59.729Z,99957.34
2023-01-12T10:30:33.723Z,99963.50
2023-01-12T10:33:15.125Z,99959.16
2023-01-12T10:35:56.118Z,99964.50
2023-01-12T10:38:29.341Z,99976.78
2023-01-12T10:41:14.630Z,99990.88
2023-01-12T10:43:46.051Z,99980.38
2023-01-12T10:46:18.867Z,99983.03
2023-01-12T10:48:55.496Z,99988.31
2023-01-12T10:51:29.481Z,99983.97
2023-01-12T10:54:03.381Z,99993.66
2023-01-12T10:56:39.418Z,99991.91
2023-01-12T10:59:21.545Z,99997.16
2023-01-12T11:01:54.264Z,99998.00
2023-01-12T11:04:31.093Z,99990.94
2023-01-12T11:07:05.459Z,99998.84
2023-01-12T11:09:35.491Z,99998.81
2023-01-12T11:12:07.010Z,100005.88
2023-01-12T11:14:39.296Z,100012.88
2023-01-12T11:17:27.945Z,99997.09
2023-01-12T11:20:03.904Z,100011.97
2023-01-12T11:22:38.180Z,100010.13
2023-01-12T11:25:15.174Z,100017.09
2023-01-12T11:27:49.624Z,100023.19
2023-01-12T11:30:24.560Z,100024.00
2023-01-12T11:33:00.489Z,100020.41
2023-01-12T11:35:38.915Z,100017.78
2023-01-12T11:38:14.642Z,100018.66
2023-01-12T11:40:47.034Z,100023.03
2023-01-12T11:43:46.735Z,100019.63
2023-01-12T11:46:25.075Z,100029.28
2023-01-12T11:49:02.750Z,100018.75
2023-01-12T11:51:35.175Z,100025.81
2023-01-12T11:54:04.989Z,100021.41
2023-01-12T11:56:59.472Z,100023.13
2023-01-12T11:59:35.385Z,100018.69
2023-01-12T12:02:22.145Z,100024.84
2023-01-12T12:05:04.387Z,100017.81
2023-01-12T12:07:50.063Z,100023.97
2023-01-12T12:10:26.067Z,100010.75
2023-01-12T12:13:17.647Z,100009.94
2023-01-12T12:15:57.077Z,100011.72
2023-01-12T12:18:41.207Z,100015.19
2023-01-12T12:21:24.042Z,100012.63
2023-01-12T12:24:08.159Z,100013.56
2023-01-12T12:26:41.349Z,100012.72
2023-01-12T12:29:30.411Z,100002.31
2023-01-12T12:32:10.587Z,99998.88
2023-01-12T12:35:03.767Z,100013.97
2023-01-12T12:37:50.075Z,100003.47
2023-01-12T12:40:59.129Z,100004.41
2023-01-12T12:43:45.938Z,100003.59
2023-01-12T12:46:27.144Z,100010.63
2023-01-12T12:49:05.087Z,100014.16
2023-01-12T12:51:38.053Z,99993.97
2023-01-12T12:54:10.014Z,100005.44
2023-01-12T12:56:42.434Z,99998.38
2023-01-12T13:00:01.111Z,99979.09
2023-01-12T13:02:37.130Z,99998.47
2023-01-12T13:05:12.590Z,99994.88
2023-01-12T13:07:53.494Z,99996.72
2023-01-12T13:10:33.718Z,99996.72
2023-01-12T13:13:27.426Z,99989.72
2023-01-12T13:16:27.687Z,99995.00
2023-01-12T13:19:09.917Z,99978.31
2023-01-12T13:21:58.050Z,99973.91
2023-01-12T13:24:30.739Z,99991.50
2023-01-12T13:27:01.992Z,99994.09
2023-01-12T13:29:45.348Z,99981.81
2023-01-12T13:32:44.035Z,99983.63
2023-01-12T13:35:30.119Z,99988.03
2023-01-12T13:38:07.028Z,99990.69
2023-01-12T13:40:36.922Z,99978.34
2023-01-12T13:43:17.087Z,99979.25
2023-01-12T13:45:55.926Z,99988.91
2023-01-12T13:48:27.247Z,99971.31
2023-01-12T13:51:01.414Z,99973.97
2023-01-12T13:53:32.804Z,99971.31
2023-01-12T13:56:04.354Z,99971.31
2023-01-12T13:58:42.129Z,99980.97
2023-01-12T14:01:21.711Z,99976.59
2023-01-12T14:04:12.165Z,99964.28
2023-01-12T14:06:51.762Z,99971.31
2023-01-12T14:09:30.015Z,99970.47
2023-01-12T14:12:23.469Z,99967.84
2023-01-12T14:15:35.481Z,99965.22
2023-01-12T14:18:10.758Z,99960.78
2023-01-12T14:20:48.626Z,99966.97
2023-01-12T14:23:22.274Z,99961.69
2023-01-12T14:26:16.720Z,99965.22
2023-01-12T14:28:48.384Z,99961.69
2023-01-12T14:31:23.943Z,99959.09
2023-01-12T14:33:58.689Z,99966.13
2023-01-12T14:36:31.717Z,99964.38
2023-01-12T14:39:03.000Z,99960.00
2023-01-12T14:41:45.743Z,99954.75
2023-01-12T14:44:34.589Z,99961.72
2023-01-12T14:47:04.757Z,99965.22
2023-01-12T14:49:38.562Z,99956.44
2023-01-12T14:52:26.312Z,99957.31
2023-01-12T14:54:56.356Z,99954.63
2023-01-12T14:57:34.240Z,99945.81
2023-01-12T15:00:06.106Z,99952.84
2023-01-12T15:02:38.453Z,99947.53
2023-01-12T15:05:23.358Z,99943.97
2023-01-12T15:07:59.541Z,99932.50
2023-01-12T15:10:32.967Z,99936.91
2023-01-12T15:13:24.846Z,99932.47
2023-01-12T15:16:07.952Z,99918.31
2023-01-12T15:18:51.535Z,99923.59
2023-01-12T15:21:37.635Z,99917.41
2023-01-12T15:24:32.828Z,99920.00
2023-01-12T15:27:06.762Z,99918.19
2023-01-12T15:29:36.830Z,99915.53
2023-01-12T15:32:08.274Z,99912.00
2023-01-12T15:34:38.114Z,99909.34
2023-01-12T15:37:11.970Z,99902.28
2023-01-12T15:39:41.746Z,99911.94
2023-01-12T15:42:22.204Z,99900.50
2023-01-12T15:44:53.941Z,99903.97
2023-01-12T15:47:24.242Z,99908.38
2023-01-12T15:49:54.192Z,99904.81
2023-01-12T15:52:28.532Z,99895.16
2023-01-12T15:54:59.097Z,99904.81
2023-01-12T15:57:29.017Z,99893.34
2023-01-12T15:59:58.851Z,99903.91
2023-01-12T16:02:34.579Z,99890.78
2023-01-12T16:05:04.913Z,99888.97
2023-01-12T16:07:37.517Z,99886.38
2023-01-12T16:10:11.583Z,99891.66
2023-01-12T16:12:41.614Z,99888.13
2023-01-12T16:15:18.545Z,99889.94
2023-01-12T16:17:48.859Z,99889.00
2023-01-12T16:20:19.763Z,99888.97
2023-01-12T16:22:52.239Z,99886.34
2023-01-12T16:25:22.577Z,99885.50
2023-01-12T16:27:52.495Z,99880.25
2023-01-12T16:30:22.615Z,99889.84
2023-01-12T16:32:52.446Z,99881.97
2023-01-12T16:35:22.303Z,99884.56
2023-01-12T16:37:56.541Z,99878.41
2023-01-12T16:40:26.351Z,99882.75
2023-01-12T16:42:56.143Z,99875.75
2023-01-12T16:45:26.012Z,99878.38
2023-01-12T16:47:58.897Z,99867.84
2023-01-12T16:50:29.049Z,99866.94
2023-01-12T16:53:01.518Z,99866.91
2023-01-12T16:55:33.092Z,99867.78
2023-01-12T16:58:02.941Z,99864.25
2023-01-12T17:00:32.816Z,99855.47
2023-01-12T17:03:04.481Z,99854.56
2023-01-12T17:05:34.845Z,99858.09
2023-01-12T17:08:08.113Z,99855.44
2023-01-12T17:10:38.135Z,99860.72
2023-01-12T17:13:08.143Z,99857.19
2023-01-12T17:15:38.253Z,99858.09
2023-01-12T17:18:08.160Z,99850.19
2023-01-12T17:20:43.762Z,99852.81
2023-01-12T17:23:16.439Z,99851.94
2023-01-12T17:25:46.498Z,99846.69
2023-01-12T17:28:16.683Z,99844.91
2023-01-12T17:30:46.767Z,99855.44
2023-01-12T17:33:17.129Z,99839.66
2023-01-12T17:35:46.989Z,99837.88
2023-01-12T17:38:19.626Z,99831.75
2023-01-12T17:40:49.484Z,99834.38
2023-01-12T17:43:17.106Z,99833.56
2023-01-12T17:45:47.036Z,99834.41
2023-01-12T17:48:19.688Z,99833.56
2023-01-12T17:50:49.778Z,99838.81
2023-01-12T17:53:22.174Z,99837.94
2023-01-12T17:55:53.182Z,99832.66
2023-01-12T17:58:23.259Z,99832.66
2023-01-12T18:00:53.060Z,99820.38
2023-01-12T18:03:23.836Z,99823.94
2023-01-12T18:06:04.574Z,99830.06
2023-01-12T18:08:39.603Z,99823.06
2023-01-12T18:11:11.408Z,99816.03
2023-01-12T18:13:42.700Z,99821.31
2023-01-12T18:16:14.445Z,99820.47
2023-01-12T18:18:45.330Z,99817.78
2023-01-12T18:21:17.609Z,99819.53
2023-01-12T18:23:51.257Z,99827.47
2023-01-12T18:26:25.026Z,99825.72
2023-01-12T18:28:55.509Z,99830.16
2023-01-12T18:31:27.468Z,99810.88
2023-01-12T18:34:02.220Z,99823.19
2023-01-12T18:36:32.174Z,99824.97
2023-01-12T18:39:05.374Z,99805.69
2023-01-12T18:41:47.578Z,99814.44
2023-01-12T18:44:17.461Z,99816.22
2023-01-12T18:46:59.902Z,99825.91
2023-01-12T18:49:31.459Z,99823.25
2023-01-12T18:52:14.487Z,99826.75
2023-01-12T18:54:52.113Z,99832.91
2023-01-12T18:57:23.976Z,99815.38
2023-01-12T18:59:55.907Z,99820.63
2023-01-12T19:02:27.973Z,99818.00
2023-01-12T19:05:16.154Z,99816.25
2023-01-12T19:07:58.509Z,99812.72
2023-01-12T19:10:32.740Z,99823.25
2023-01-12T19:13:14.954Z,99814.47
2023-01-12T19:15:57.419Z,99810.09
2023-01-12T19:18:27.319Z,99804.00
2023-01-12T19:21:17.609Z,99794.28
2023-01-12T19:23:59.866Z,99809.19
2023-01-12T19:26:45.525Z,99796.94
2023-01-12T19:29:15.363Z,99803.91
2023-01-12T19:31:45.863Z,99803.03
2023-01-12T19:34:15.869Z,99787.25
2023-01-12T19:36:46.374Z,99795.16
2023-01-12T19:39:27.881Z,99793.38
2023-01-12T19:42:15.983Z,99794.22
2023-01-12T19:44:47.841Z,99793.38
2023-01-12T19:47:20.653Z,99790.75
2023-01-12T19:49:58.278Z,99783.69
2023-01-12T19:52:28.483Z,99764.44
2023-01-12T19:54:59.972Z,99784.63
2023-01-12T19:57:32.762Z,99759.13
2023-01-12T20:00:14.271Z,99783.66
2023-01-12T20:02:46.629Z,99786.31
2023-01-12T20:05:22.986Z,99790.72
2023-01-12T20:07:54.402Z,99789.88
2023-01-12T20:10:25.353Z,99781.97
2023-01-12T20:13:20.103Z,99780.22
2023-01-12T20:15:53.440Z,99780.22
2023-01-12T20:18:23.702Z,99785.50
2023-01-12T20:20:53.502Z,99787.25
2023-01-12T20:23:23.316Z,99784.66
2023-01-12T20:25:53.282Z,99775.88
2023-01-12T20:28:25.773Z,99770.59
2023-01-12T20:30:56.629Z,99765.34
2023-01-12T20:33:28.507Z,99770.59
2023-01-12T20:35:58.503Z,99774.97
2023-01-12T20:38:28.244Z,99766.16
2023-01-12T20:40:58.232Z,99769.66
2023-01-12T20:43:30.601Z,99774.94
2023-01-12T20:46:00.386Z,99783.66
2023-01-12T20:48:30.165Z,99779.31
2023-01-12T20:51:01.275Z,99781.94
2023-01-12T20:53:31.685Z,99771.38
2023-01-12T20:56:01.493Z,99784.50
2023-01-12T20:58:34.470Z,99782.75
2023-01-12T21:01:04.792Z,99788.03
2023-01-12T21:03:34.652Z,99785.38
2023-01-12T21:06:04.739Z,99789.75
2023-01-12T21:08:34.666Z,99798.56
2023-01-12T21:11:04.495Z,99795.91
2023-01-12T21:13:37.814Z,99797.72
2023-01-12T21:16:12.612Z,99795.91
2023-01-12T21:18:43.206Z,99798.53
2023-01-12T21:21:14.186Z,99808.16
2023-01-12T21:23:46.434Z,99803.75
2023-01-12T21:26:16.942Z,99804.63
2023-01-12T21:28:52.575Z,99805.50
2023-01-12T21:31:22.527Z,99813.41
2023-01-12T21:33:52.470Z,99810.69
2023-01-12T21:36:23.541Z,99797.53
2023-01-12T21:38:53.944Z,99794.84
2023-01-12T21:41:26.485Z,99793.94
2023-01-12T21:43:58.844Z,99798.28
2023-01-12T21:46:31.636Z,99802.66
2023-01-12T21:49:07.171Z,99803.50
2023-01-12T21:51:37.337Z,99813.94
2023-01-12T21:54:07.351Z,99804.25
2023-01-12T21:56:37.160Z,99799.81
2023-01-12T21:59:09.582Z,99807.69
2023-01-12T22:01:41.259Z,99805.88
2023-01-12T22:04:11.368Z,99805.84
2023-01-12T22:06:41.424Z,99801.41
2023-01-12T22:09:11.487Z,99805.72
2023-01-12T22:11:41.360Z,99809.22
2023-01-12T22:14:13.982Z,99805.63
2023-01-12T22:16:43.863Z,99809.09
2023-01-12T22:19:13.784Z,99816.97
2023-01-12T22:21:44.362Z,99815.16
2023-01-12T22:24:14.120Z,99814.25
2023-01-12T22:26:43.963Z,99810.69
2023-01-12T22:29:16.459Z,99813.28
2023-01-12T22:31:46.244Z,99821.13
2023-01-12T22:34:16.113Z,99801.84
2023-01-12T22:36:45.877Z,99802.69
2023-01-12T22:39:16.392Z,99795.66
2023-01-12T22:41:47.501Z,99800.06
2023-01-12T22:44:19.950Z,99798.25
2023-01-12T22:46:49.734Z,99803.53
2023-01-12T22:49:19.563Z,99807.94
2023-01-12T22:51:49.430Z,99802.69
2023-01-12T22:54:19.511Z,99804.44
2023-01-12T22:56:49.324Z,99795.59
2023-01-12T22:59:21.931Z,99815.75
2023-01-12T23:01:51.834Z,99815.66
2023-01-12T23:04:21.733Z,99814.75
2023-01-12T23:06:51.669Z,99825.22
2023-01-12T23:09:21.567Z,99817.28
2023-01-12T23:11:51.420Z,99813.72
2023-01-12T23:14:23.942Z,99815.44
2023-01-12T23:16:53.790Z,99820.59
2023-01-12T23:19:23.624Z,99834.53
2023-01-12T23:21:53.532Z,99823.97
2023-01-12T23:24:23.418Z,99828.28
2023-01-12T23:26:53.353Z,99817.69
2023-01-12T23:29:25.828Z,99834.25
2023-01-12T23:31:55.706Z,99837.66
2023-01-12T23:34:25.583Z,99836.75
2023-01-12T23:36:55.442Z,99841.13
2023-01-12T23:39:25.389Z,99827.00
2023-01-12T23:41:55.348Z,99845.38
2023-01-12T23:44:27.847Z,99838.31
2023-01-12T23:46:57.762Z,99838.25
2023-01-12T23:49:27.595Z,99844.34
2023-01-12T23:51:57.409Z,99830.25
2023-01-12T23:54:27.546Z,99835.38
2023-01-12T23:56:57.530Z,99837.94
2023-01-12T23:59:30.180Z,99828.16
